createdAt,value
2023-05-05T00:04:47.969Z,5.03
2023-05-05T00:09:51.632Z,5.30
2023-05-05T00:14:56.474Z,5.10
2023-05-05T00:19:59.795Z,5.03
2023-05-05T00:25:03.676Z,4.97
2023-05-05T00:30:09.626Z,5.18
2023-05-05T00:35:13.416Z,5.07
2023-05-05T00:40:18.501Z,4.50
2023-05-05T00:45:25.457Z,4.45
2023-05-05T00:50:30.322Z,4.55
2023-05-05T00:55:35.205Z,5.00
2023-05-05T01:00:40.439Z,4.80
2023-05-05T01:05:53.511Z,5.22
2023-05-05T01:11:09.091Z,4.90
2023-05-05T01:16:19.931Z,4.70
2023-05-05T01:21:31.426Z,4.97
2023-05-05T01:26:53.990Z,4.80
2023-05-05T01:32:02.584Z,5.00
2023-05-05T01:37:11.390Z,4.95
2023-05-05T01:42:15.493Z,5.00
2023-05-05T01:47:23.352Z,5.18
2023-05-05T01:52:30.816Z,4.80
2023-05-05T01:57:34.876Z,4.53
2023-05-05T02:02:41.948Z,4.60
2023-05-05T02:07:47.022Z,5.20
2023-05-05T02:12:51.906Z,5.17
2023-05-05T02:17:58.114Z,5.18
2023-05-05T02:23:01.777Z,5.35
2023-05-05T02:28:06.101Z,5.43
2023-05-05T02:33:14.814Z,6.00
2023-05-05T02:38:21.606Z,5.70
2023-05-05T02:43:28.198Z,6.00
2023-05-05T02:48:33.736Z,5.70
2023-05-05T02:53:39.506Z,5.43
2023-05-05T02:58:50.235Z,5.18
2023-05-05T03:04:01.510Z,6.30
2023-05-05T03:09:11.150Z,6.28
2023-05-05T03:14:19.984Z,6.10
2023-05-05T03:19:29.080Z,6.10
2023-05-05T03:24:36.969Z,8.00
2023-05-05T03:29:44.547Z,6.82
2023-05-05T03:34:52.535Z,7.88
2023-05-05T03:40:02.429Z,6.82
2023-05-05T03:45:08.136Z,6.57
2023-05-05T03:50:14.121Z,6.40
2023-05-05T03:55:21.093Z,6.50
2023-05-05T04:00:31.602Z,6.90
2023-05-05T04:05:42.067Z,7.32
2023-05-05T04:10:46.936Z,7.93
2023-05-05T04:15:51.436Z,7.82
2023-05-05T04:20:58.022Z,7.53
2023-05-05T04:26:03.165Z,7.77
2023-05-05T04:31:10.352Z,6.80
2023-05-05T04:36:19.861Z,7.63
2023-05-05T04:41:24.610Z,7.70
2023-05-05T04:46:28.279Z,7.07
2023-05-05T04:51:33.369Z,6.40
2023-05-05T04:56:37.261Z,7.00
2023-05-05T05:01:41.336Z,6.55
2023-05-05T05:06:46.628Z,6.85
2023-05-05T05:11:50.632Z,6.90
2023-05-05T05:16:54.183Z,5.88
2023-05-05T05:22:00.989Z,6.13
2023-05-05T05:27:09.665Z,5.68
2023-05-05T05:32:14.528Z,5.03
2023-05-05T05:37:20.095Z,4.90
2023-05-05T05:42:23.722Z,4.80
2023-05-05T05:47:28.146Z,5.20
2023-05-05T05:52:36.360Z,5.07
2023-05-05T05:57:42.448Z,5.22
2023-05-05T06:02:47.445Z,5.60
2023-05-05T06:07:56.471Z,5.50
2023-05-05T06:13:02.346Z,5.45
2023-05-05T06:18:07.736Z,4.90
2023-05-05T06:23:12.615Z,5.07
2023-05-05T06:28:20.928Z,5.32
2023-05-05T06:33:24.610Z,5.27
2023-05-05T06:38:29.634Z,5.63
2023-05-05T06:43:33.140Z,5.50
2023-05-05T06:48:40.100Z,5.78
2023-05-05T06:53:44.837Z,6.20
2023-05-05T06:58:48.221Z,5.60
2023-05-05T07:03:52.444Z,5.43
2023-05-05T07:08:58.016Z,5.63
2023-05-05T07:14:01.384Z,5.82
2023-05-05T07:19:06.535Z,5.93
2023-05-05T07:24:11.293Z,5.40
2023-05-05T07:29:14.996Z,5.93
2023-05-05T07:34:18.354Z,6.78
2023-05-05T07:39:23.200Z,6.07
2023-05-05T07:44:27.304Z,5.83
2023-05-05T07:49:30.740Z,6.17
2023-05-05T07:54:35.804Z,5.53
2023-05-05T07:59:43.357Z,5.45
2023-05-05T08:04:46.809Z,5.30
2023-05-05T08:09:52.550Z,5.63
2023-05-05T08:14:55.968Z,5.37
2023-05-05T08:19:59.293Z,5.30
2023-05-05T08:25:04.028Z,5.65
2023-05-05T08:30:09.041Z,5.20
2023-05-05T08:35:12.595Z,5.38
2023-05-05T08:40:17.514Z,5.53
2023-05-05T08:45:20.945Z,5.18
2023-05-05T08:50:28.159Z,5.37
2023-05-05T08:55:36.396Z,5.57
2023-05-05T09:00:42.713Z,5.13
2023-05-05T09:05:46.338Z,6.00
2023-05-05T09:10:54.195Z,5.65
2023-05-05T09:15:57.566Z,5.35
2023-05-05T09:21:00.873Z,6.03
2023-05-05T09:26:08.918Z,5.25
2023-05-05T09:31:16.357Z,5.60
2023-05-05T09:36:19.919Z,5.88
2023-05-05T09:41:38.238Z,5.93
2023-05-05T09:46:51.519Z,5.20
2023-05-05T09:51:55.298Z,6.00
2023-05-05T09:57:00.049Z,5.43
2023-05-05T10:02:12.933Z,6.13
2023-05-05T10:07:25.182Z,6.30
2023-05-05T10:12:32.471Z,5.97
2023-05-05T10:17:38.598Z,6.63
2023-05-05T10:22:46.823Z,6.43
2023-05-05T10:27:54.264Z,5.88
2023-05-05T10:33:22.303Z,6.10
2023-05-05T10:38:31.090Z,5.80
2023-05-05T10:43:36.701Z,6.60
2023-05-05T10:48:48.126Z,5.78
2023-05-05T10:53:58.158Z,6.55
2023-05-05T10:59:02.956Z,6.15
2023-05-05T11:04:22.799Z,6.68
2023-05-05T11:09:29.359Z,5.68
2023-05-05T11:14:34.305Z,6.35
2023-05-05T11:19:48.342Z,6.22
2023-05-05T11:24:51.708Z,6.55
2023-05-05T11:30:10.617Z,5.95
2023-05-05T11:35:14.869Z,7.00
2023-05-05T11:40:25.063Z,6.20
2023-05-05T11:45:30.743Z,5.97
2023-05-05T11:50:34.599Z,5.35
2023-05-05T11:55:37.913Z,6.30
2023-05-05T12:00:42.836Z,6.00
2023-05-05T12:05:47.571Z,5.20
2023-05-05T12:10:51.035Z,6.10
2023-05-05T12:15:56.006Z,6.20
2023-05-05T12:20:59.461Z,6.00
2023-05-05T12:26:02.891Z,5.50
2023-05-05T12:31:07.798Z,5.65
2023-05-05T12:36:12.392Z,4.80
2023-05-05T12:41:22.391Z,3.92
2023-05-05T12:46:29.759Z,4.50
2023-05-05T12:51:33.866Z,3.83
2023-05-05T12:56:40.715Z,4.85
2023-05-05T13:01:52.081Z,4.15
2023-05-05T13:07:11.306Z,3.70
2023-05-05T13:12:14.782Z,3.50
2023-05-05T13:17:19.548Z,3.90
2023-05-05T13:22:22.986Z,3.95
2023-05-05T13:27:26.468Z,3.95
2023-05-05T13:32:31.330Z,4.13
2023-05-05T13:37:34.701Z,3.22
2023-05-05T13:42:38.439Z,3.92
2023-05-05T13:47:44.576Z,3.08
2023-05-05T13:52:48.044Z,2.88
2023-05-05T13:57:51.748Z,3.20
2023-05-05T14:02:56.568Z,3.10
2023-05-05T14:08:00.211Z,2.63
2023-05-05T14:13:04.424Z,2.60
2023-05-05T14:18:09.760Z,2.80
2023-05-05T14:23:13.165Z,2.53
2023-05-05T14:28:16.618Z,3.20
2023-05-05T14:33:22.304Z,2.88
2023-05-05T14:38:25.783Z,3.10
